Time;durP1;ratioP1;P1;durP2;ratioP2;P2;SDS_P1;SDS_P2;PMS_P1;PMS_P2;Temp;Humidity;BMP_temperature;BMP_pressure;BME280_temperature;BME280_humidity;BME280_pressure;Samples;Min_cycle;Max_cycle;Signal;HPM_P1;HPM_P2
2022/10/26 00:01:33;;;;;;;10.23;5.87;;;8.70;99.90;;;;;;5035292;28;20274;-67
2022/10/26 00:03:59;;;;;;;7.27;5.00;;;8.80;99.90;;;;;;5035117;28;20598;-67
2022/10/26 00:06:29;;;;;;;13.00;5.77;;;8.80;99.90;;;;;;5035241;28;20254;-67
2022/10/26 00:08:56;;;;;;;7.17;4.80;;;8.90;99.90;;;;;;5035178;28;20233;-67
2022/10/26 00:11:22;;;;;;;7.83;5.80;;;8.90;99.90;;;;;;5035122;28;20178;-67
2022/10/26 00:13:48;;;;;;;15.60;5.60;;;9.00;99.90;;;;;;5033906;28;20182;-67
2022/10/26 00:16:18;;;;;;;9.33;5.57;;;9.00;99.90;;;;;;5035356;28;20195;-67
2022/10/26 00:18:44;;;;;;;11.00;6.73;;;9.00;99.90;;;;;;5034829;28;20197;-67
2022/10/26 00:21:10;;;;;;;9.50;6.27;;;9.00;99.90;;;;;;5035014;28;20179;-67
2022/10/26 00:23:36;;;;;;;10.40;5.83;;;9.00;99.90;;;;;;5035258;28;20296;-67
2022/10/26 00:26:02;;;;;;;10.10;5.57;;;9.10;99.90;;;;;;5034824;28;20286;-67
2022/10/26 00:28:29;;;;;;;12.13;5.90;;;9.10;99.90;;;;;;5034771;28;20682;-67
2022/10/26 00:30:58;;;;;;;7.63;5.13;;;9.20;99.90;;;;;;5034938;28;20172;-68
2022/10/26 00:33:24;;;;;;;12.37;5.80;;;9.20;99.90;;;;;;5034827;28;20643;-67
2022/10/26 00:35:53;;;;;;;6.97;5.87;;;9.20;99.90;;;;;;5033603;28;20213;-67
2022/10/26 00:38:19;;;;;;;17.07;6.67;;;9.30;99.90;;;;;;5034915;28;20258;-67
2022/10/26 00:40:46;;;;;;;10.03;6.10;;;9.30;99.90;;;;;;5034836;28;20222;-67
2022/10/26 00:43:36;;;;;;;8.23;5.80;;;9.30;99.90;;;;;;5034784;28;20266;-67
2022/10/26 00:46:05;;;;;;;8.40;6.03;;;9.40;99.90;;;;;;5034402;28;20250;-67
2022/10/26 00:48:55;;;;;;;9.53;5.60;;;9.40;99.90;;;;;;5034444;28;20214;-67
2022/10/26 00:51:32;;;;;;;9.90;5.70;;;9.40;99.90;;;;;;5033810;28;20198;-67
2022/10/26 00:54:00;;;;;;;8.20;5.47;;;9.40;99.90;;;;;;5034238;28;20282;-67
2022/10/26 00:56:27;;;;;;;10.53;5.07;;;9.40;99.90;;;;;;5034202;28;20182;-67
2022/10/26 00:58:54;;;;;;;10.97;6.00;;;9.40;99.90;;;;;;5034156;28;20175;-67
2022/10/26 01:01:20;;;;;;;10.17;5.53;;;9.50;99.90;;;;;;5034120;28;20246;-67
2022/10/26 01:03:47;;;;;;;11.93;5.60;;;9.50;99.90;;;;;;5033996;28;20254;-67
2022/10/26 01:06:13;;;;;;;8.40;5.50;;;9.50;99.90;;;;;;5034548;28;20202;-67
2022/10/26 01:08:40;;;;;;;9.43;5.27;;;9.50;99.90;;;;;;5034001;28;20175;-67
2022/10/26 01:11:06;;;;;;;10.03;4.90;;;9.50;99.90;;;;;;5034487;28;20582;-67
2022/10/26 01:13:34;;;;;;;6.63;4.93;;;9.60;99.90;;;;;;5034253;28;20195;-67
2022/10/26 01:16:23;;;;;;;7.97;5.63;;;9.60;99.90;;;;;;5034104;28;20171;-67
2022/10/26 01:19:02;;;;;;;9.63;5.40;;;9.60;99.90;;;;;;5033649;28;20191;-67
2022/10/26 01:21:36;;;;;;;8.30;4.60;;;9.60;99.90;;;;;;5034004;28;20159;-67
2022/10/26 01:24:40;;;;;;;6.23;4.73;;;9.60;99.90;;;;;;5032214;28;20210;-67
2022/10/26 01:27:27;;;;;;;6.07;5.20;;;9.70;99.90;;;;;;5032664;28;20194;-67
2022/10/26 01:30:16;;;;;;;7.03;4.87;;;9.80;99.90;;;;;;5033967;28;20174;-67
2022/10/26 01:32:45;;;;;;;7.80;5.33;;;9.70;99.90;;;;;;5034186;28;20273;-67
2022/10/26 01:35:19;;;;;;;8.23;4.90;;;9.80;99.90;;;;;;5032234;28;20223;-67
2022/10/26 01:38:11;;;;;;;7.83;4.90;;;9.80;99.90;;;;;;5033945;28;20601;-67
2022/10/26 01:40:49;;;;;;;8.50;5.03;;;9.80;99.90;;;;;;5033589;28;20613;-67
2022/10/26 01:43:17;;;;;;;7.03;5.00;;;9.80;99.90;;;;;;5033816;28;20162;-67
2022/10/26 01:45:46;;;;;;;6.90;5.23;;;9.70;99.90;;;;;;5032005;28;20630;-67
2022/10/26 01:48:15;;;;;;;6.63;5.07;;;9.80;99.90;;;;;;5032019;28;20278;-68
2022/10/26 01:50:44;;;;;;;6.70;5.13;;;9.80;99.90;;;;;;5033880;28;20175;-67
2022/10/26 01:53:17;;;;;;;6.43;4.97;;;9.80;99.90;;;;;;5033251;28;20175;-67
2022/10/26 01:55:49;;;;;;;5.97;4.87;;;9.80;99.90;;;;;;5033303;28;20614;-67
2022/10/26 01:58:43;;;;;;;9.87;5.00;;;9.80;99.90;;;;;;5033207;28;20625;-67
2022/10/26 02:01:27;;;;;;;6.57;5.33;;;9.80;99.90;;;;;;5033887;28;20247;-67
2022/10/26 02:04:28;;;;;;;10.57;5.23;;;9.80;99.90;;;;;;5031845;28;20237;-67
2022/10/26 02:07:10;;;;;;;14.60;6.20;;;9.80;99.90;;;;;;5031964;28;20170;-67
2022/10/26 02:09:50;;;;;;;7.27;4.70;;;9.70;99.90;;;;;;5033123;28;20529;-67
2022/10/26 02:12:38;;;;;;;6.00;5.10;;;9.70;99.90;;;;;;5033389;28;20166;-67
2022/10/26 02:15:18;;;;;;;8.00;5.00;;;9.70;99.90;;;;;;5032416;28;20608;-67
2022/10/26 02:18:27;;;;;;;8.17;4.93;;;9.80;99.90;;;;;;5035197;28;20511;-67
2022/10/26 02:21:05;;;;;;;9.50;5.00;;;9.80;99.90;;;;;;5028797;28;20651;-63
2022/10/26 02:23:34;;;;;;;8.93;5.43;;;9.80;99.90;;;;;;5037197;28;20182;-62
2022/10/26 02:26:02;;;;;;;7.30;5.07;;;9.80;99.90;;;;;;5036990;28;20690;-62
2022/10/26 02:28:39;;;;;;;10.30;4.90;;;9.80;99.90;;;;;;5036803;28;20187;-62
2022/10/26 02:31:06;;;;;;;13.20;5.43;;;9.80;99.90;;;;;;5036988;28;20163;-62
2022/10/26 02:33:37;;;;;;;7.93;5.40;;;9.80;99.90;;;;;;5036977;28;20175;-63
2022/10/26 02:36:07;;;;;;;16.20;5.80;;;9.80;99.90;;;;;;5036871;28;20167;-62
2022/10/26 02:38:35;;;;;;;6.80;4.73;;;9.80;99.90;;;;;;5036933;28;20268;-62
2022/10/26 02:41:03;;;;;;;8.20;5.10;;;9.80;99.90;;;;;;5036834;28;20182;-62
2022/10/26 02:43:34;;;;;;;8.90;5.17;;;9.90;99.90;;;;;;5036694;28;20185;-62
2022/10/26 02:46:06;;;;;;;8.87;4.83;;;9.90;99.90;;;;;;5036951;28;20191;-63
2022/10/26 02:48:32;;;;;;;6.40;4.93;;;9.90;99.90;;;;;;5036811;28;20614;-63
2022/10/26 02:51:24;;;;;;;8.63;5.03;;;9.90;99.90;;;;;;5036612;28;20258;-63
2022/10/26 02:54:22;;;;;;;12.43;5.20;;;9.90;99.90;;;;;;5035223;28;20567;-63
2022/10/26 02:56:53;;;;;;;8.53;5.40;;;9.90;99.90;;;;;;5035670;28;20644;-63
2022/10/26 02:59:21;;;;;;;9.27;5.67;;;9.90;99.90;;;;;;5036709;28;20254;-63
2022/10/26 03:01:49;;;;;;;9.67;4.90;;;9.90;99.90;;;;;;5036486;28;20183;-63
2022/10/26 03:04:15;;;;;;;6.70;4.87;;;9.90;99.90;;;;;;5036670;28;20198;-63
2022/10/26 03:06:41;;;;;;;8.67;5.07;;;9.90;99.90;;;;;;5036304;28;20190;-63
2022/10/26 03:09:06;;;;;;;9.17;4.87;;;9.90;99.90;;;;;;5036107;28;20581;-63
2022/10/26 03:11:32;;;;;;;8.10;4.97;;;9.90;99.90;;;;;;5035046;28;20180;-63
2022/10/26 03:13:58;;;;;;;6.87;4.80;;;10.00;99.90;;;;;;5036184;28;20203;-63
2022/10/26 03:16:23;;;;;;;7.63;4.80;;;9.90;99.90;;;;;;5036122;28;20182;-62
2022/10/26 03:18:49;;;;;;;8.00;5.33;;;10.00;99.90;;;;;;5036075;28;20191;-63
2022/10/26 03:21:15;;;;;;;7.30;4.80;;;10.00;99.90;;;;;;5036120;28;20258;-63
2022/10/26 03:23:41;;;;;;;5.87;5.00;;;9.90;99.90;;;;;;5035712;28;20175;-63
2022/10/26 03:26:06;;;;;;;6.87;5.13;;;9.90;99.90;;;;;;5035973;28;20199;-63
2022/10/26 03:28:32;;;;;;;8.60;5.30;;;9.90;99.90;;;;;;5035284;28;20585;-63
2022/10/26 03:30:58;;;;;;;10.00;5.80;;;9.90;99.90;;;;;;5035037;28;20176;-63
2022/10/26 03:33:23;;;;;;;12.80;5.30;;;10.00;99.90;;;;;;5035811;28;20175;-63
2022/10/26 03:35:56;;;;;;;9.57;5.03;;;10.00;99.90;;;;;;5035735;28;20206;-63
2022/10/26 03:38:21;;;;;;;9.70;4.80;;;10.00;99.90;;;;;;5035856;28;20191;-63
2022/10/26 03:40:47;;;;;;;7.87;5.03;;;10.00;99.90;;;;;;5034355;28;20225;-63
2022/10/26 03:43:13;;;;;;;8.40;5.10;;;10.00;99.90;;;;;;5035880;28;20179;-63
2022/10/26 03:45:39;;;;;;;12.97;5.17;;;10.00;99.90;;;;;;5035491;28;20260;-63
2022/10/26 03:48:05;;;;;;;9.67;5.17;;;10.10;99.90;;;;;;5035525;28;20194;-63
2022/10/26 03:50:30;;;;;;;8.00;5.10;;;10.10;99.90;;;;;;5035820;28;20675;-63
2022/10/26 03:52:56;;;;;;;6.07;4.73;;;10.10;99.90;;;;;;5035735;28;20542;-63
2022/10/26 03:55:22;;;;;;;7.83;5.20;;;10.10;99.90;;;;;;5035283;28;20199;-63
2022/10/26 03:57:47;;;;;;;13.63;5.20;;;10.10;99.90;;;;;;5035628;28;20187;-63
2022/10/26 04:00:16;;;;;;;8.20;5.27;;;10.10;99.90;;;;;;5035829;28;20179;-63
2022/10/26 04:02:46;;;;;;;5.30;4.73;;;10.10;99.90;;;;;;5035230;28;20179;-63
2022/10/26 04:05:14;;;;;;;6.57;4.57;;;10.10;99.90;;;;;;5035281;28;20207;-63
2022/10/26 04:07:39;;;;;;;12.03;5.63;;;10.10;99.90;;;;;;5033883;28;20185;-63
2022/10/26 04:10:06;;;;;;;8.17;4.83;;;10.10;99.90;;;;;;5035171;28;20238;-63
2022/10/26 04:12:31;;;;;;;5.20;4.47;;;10.10;99.90;;;;;;5035232;28;20588;-63
2022/10/26 04:14:57;;;;;;;9.00;5.03;;;10.20;99.90;;;;;;5033722;28;20199;-63
2022/10/26 04:17:24;;;;;;;6.53;4.70;;;10.20;99.90;;;;;;5034927;28;20180;-63
2022/10/26 04:19:50;;;;;;;6.97;5.10;;;10.20;99.90;;;;;;5033647;28;20187;-63
2022/10/26 04:22:15;;;;;;;8.40;5.03;;;10.20;99.90;;;;;;5035171;28;20179;-63
2022/10/26 04:24:41;;;;;;;6.53;4.73;;;10.20;99.90;;;;;;5033339;28;20741;-63
2022/10/26 04:27:07;;;;;;;8.23;4.80;;;10.20;99.90;;;;;;5034940;28;20182;-63
2022/10/26 04:29:32;;;;;;;7.73;5.13;;;10.30;99.90;;;;;;5034657;28;20571;-63
2022/10/26 04:31:58;;;;;;;6.20;4.57;;;10.30;99.90;;;;;;5034599;28;20308;-62
2022/10/26 04:34:24;;;;;;;6.97;5.07;;;10.30;99.90;;;;;;5034574;28;20195;-63
2022/10/26 04:36:49;;;;;;;10.67;4.97;;;10.30;99.90;;;;;;5034688;28;20186;-63
2022/10/26 04:39:15;;;;;;;8.40;4.80;;;10.30;99.90;;;;;;5034766;28;20266;-63
2022/10/26 04:41:41;;;;;;;6.90;4.73;;;10.30;99.90;;;;;;5034275;28;20179;-63
2022/10/26 04:44:07;;;;;;;8.67;4.90;;;10.30;99.90;;;;;;5034713;28;20230;-63
2022/10/26 04:46:32;;;;;;;8.13;4.80;;;10.30;99.90;;;;;;5034499;28;20175;-63
2022/10/26 04:48:58;;;;;;;6.77;4.90;;;10.30;99.90;;;;;;5034411;28;20183;-63
2022/10/26 04:51:25;;;;;;;6.37;4.90;;;10.30;99.90;;;;;;5034347;28;20171;-63
2022/10/26 04:53:53;;;;;;;8.17;5.00;;;10.30;99.90;;;;;;5034306;28;20250;-63
2022/10/26 04:56:19;;;;;;;8.63;5.00;;;10.30;99.90;;;;;;5034679;28;20199;-63
2022/10/26 04:58:45;;;;;;;6.33;4.90;;;10.20;99.90;;;;;;5034458;28;20175;-66
2022/10/26 05:01:11;;;;;;;7.63;5.17;;;10.20;99.90;;;;;;5034136;28;20179;-63
2022/10/26 05:03:37;;;;;;;10.20;5.70;;;10.20;99.90;;;;;;5033993;28;20572;-63
2022/10/26 05:06:03;;;;;;;8.87;5.57;;;10.20;99.90;;;;;;5033912;28;20207;-63
2022/10/26 05:08:28;;;;;;;8.83;6.53;;;10.20;99.90;;;;;;5034007;28;20182;-63
2022/10/26 05:10:55;;;;;;;5.60;4.80;;;10.20;99.90;;;;;;5033788;28;20171;-64
2022/10/26 05:13:20;;;;;;;8.37;5.03;;;10.20;99.90;;;;;;5033813;28;20183;-63
2022/10/26 05:15:46;;;;;;;8.77;4.93;;;10.20;99.90;;;;;;5033657;28;20278;-64
2022/10/26 05:18:12;;;;;;;8.53;5.10;;;10.20;99.90;;;;;;5033822;28;20186;-64
2022/10/26 05:20:37;;;;;;;7.60;4.80;;;10.30;99.90;;;;;;5033688;28;20185;-63
2022/10/26 05:23:06;;;;;;;7.67;5.20;;;10.30;99.90;;;;;;5033635;28;20175;-63
2022/10/26 05:25:35;;;;;;;6.03;5.00;;;10.30;99.90;;;;;;5033328;28;20210;-64
2022/10/26 05:28:03;;;;;;;6.17;4.87;;;10.40;99.90;;;;;;5033617;28;20191;-64
2022/10/26 05:30:29;;;;;;;8.83;5.13;;;10.40;99.90;;;;;;5033631;28;20179;-64
2022/10/26 05:32:56;;;;;;;6.70;5.23;;;10.50;99.90;;;;;;5033620;28;20175;-63
2022/10/26 05:35:22;;;;;;;5.77;4.37;;;10.50;99.90;;;;;;5032301;28;20619;-63
2022/10/26 05:37:48;;;;;;;7.03;4.33;;;10.50;99.90;;;;;;5033452;28;20175;-63
2022/10/26 05:40:15;;;;;;;6.87;4.53;;;10.50;99.90;;;;;;5033182;28;20236;-63
2022/10/26 05:42:41;;;;;;;8.93;5.20;;;10.60;99.90;;;;;;5033297;28;20174;-63
2022/10/26 05:45:07;;;;;;;6.20;4.60;;;10.70;99.90;;;;;;5031914;28;20206;-63
2022/10/26 05:47:41;;;;;;;6.27;4.53;;;10.70;99.90;;;;;;5033868;28;20210;-63
2022/10/26 05:50:08;;;;;;;14.70;7.23;;;10.70;99.90;;;;;;5033537;28;20498;-63
2022/10/26 05:52:40;;;;;;;17.50;7.13;;;10.80;99.90;;;;;;5033060;28;20267;-63
2022/10/26 05:55:07;;;;;;;12.00;6.93;;;10.80;99.90;;;;;;5031751;28;20203;-63
2022/10/26 05:57:33;;;;;;;11.80;6.87;;;10.90;99.90;;;;;;5033136;28;20182;-63
2022/10/26 05:59:59;;;;;;;14.63;7.97;;;10.90;99.90;;;;;;5033413;28;20207;-65
2022/10/26 06:02:51;;;;;;;11.17;7.47;;;10.90;99.90;;;;;;5033433;28;20192;-65
2022/10/26 06:05:22;;;;;;;10.23;6.93;;;11.00;99.90;;;;;;5031897;28;20235;-65
2022/10/26 06:07:47;;;;;;;11.67;6.50;;;11.00;99.90;;;;;;5031932;28;20178;-64
2022/10/26 06:10:14;;;;;;;8.97;5.90;;;11.00;99.90;;;;;;5032935;28;20541;-64
2022/10/26 06:12:40;;;;;;;9.47;5.20;;;11.10;99.90;;;;;;5033644;28;20174;-64
2022/10/26 06:15:06;;;;;;;8.70;4.57;;;11.10;99.90;;;;;;5032987;28;20191;-65
2022/10/26 06:18:17;;;;;;;6.00;4.30;;;11.10;99.90;;;;;;5033382;28;20262;-64
2022/10/26 06:20:43;;;;;;;4.80;4.22;;;11.10;99.90;;;;;;5032657;28;20651;-64
2022/10/26 06:23:27;;;;;;;11.07;4.20;;;11.20;99.90;;;;;;5033417;28;20186;-64
2022/10/26 06:26:18;;;;;;;6.27;4.30;;;11.20;99.90;;;;;;5032890;28;20211;-64
2022/10/26 06:29:16;;;;;;;5.83;4.37;;;11.20;99.90;;;;;;5032877;28;20535;-64
2022/10/26 06:31:44;;;;;;;6.63;4.53;;;11.20;99.90;;;;;;5032330;28;20188;-64
2022/10/26 06:34:12;;;;;;;6.43;4.10;;;11.20;99.90;;;;;;5033182;28;20556;-64
2022/10/26 06:36:40;;;;;;;4.53;4.13;;;11.20;99.90;;;;;;5032844;28;20193;-64
2022/10/26 06:39:10;;;;;;;5.67;4.23;;;11.20;99.90;;;;;;5033058;28;20178;-64
2022/10/26 06:41:36;;;;;;;5.50;3.80;;;11.20;99.90;;;;;;5032831;28;20186;-64
2022/10/26 06:44:03;;;;;;;7.25;4.15;;;11.20;99.90;;;;;;5032835;28;20266;-64
2022/10/26 06:46:38;;;;;;;6.78;4.07;;;11.20;99.90;;;;;;5033042;28;20178;-64
2022/10/26 06:49:07;;;;;;;6.13;4.50;;;11.20;99.90;;;;;;5032740;28;20199;-64
2022/10/26 06:51:41;;;;;;;5.07;3.80;;;11.20;99.90;;;;;;5032713;28;20202;-64
2022/10/26 06:54:28;;;;;;;6.60;4.53;;;11.20;99.90;;;;;;5032996;28;20198;-64
2022/10/26 06:56:54;;;;;;;7.53;4.65;;;11.20;99.90;;;;;;5032916;28;20167;-64
2022/10/26 07:00:00;;;;;;;6.13;4.75;;;11.20;99.90;;;;;;5032665;28;20228;-64
2022/10/26 07:02:26;;;;;;;6.20;4.80;;;11.30;99.90;;;;;;5021935;28;20190;-64
2022/10/26 07:04:51;;;;;;;10.98;5.38;;;11.30;99.90;;;;;;5035328;28;20214;-64
2022/10/26 07:07:20;;;;;;;6.82;4.75;;;11.30;99.90;;;;;;5036201;28;20178;-64
2022/10/26 07:09:46;;;;;;;7.03;4.75;;;11.30;99.90;;;;;;5036254;28;20254;-64
2022/10/26 07:12:12;;;;;;;4.53;3.95;;;11.40;99.90;;;;;;5036464;28;20258;-64
2022/10/26 07:14:38;;;;;;;4.57;3.80;;;11.40;99.90;;;;;;5036099;28;20210;-64
2022/10/26 07:17:04;;;;;;;5.60;4.05;;;11.40;99.90;;;;;;5036170;28;20171;-64
2022/10/26 07:19:30;;;;;;;5.75;3.83;;;11.40;99.90;;;;;;5036570;28;20187;-64
2022/10/26 07:22:00;;;;;;;5.60;3.70;;;11.50;99.90;;;;;;5036061;28;20648;-64
2022/10/26 07:24:27;;;;;;;6.40;3.50;;;11.60;99.90;;;;;;5035884;28;20206;-64
2022/10/26 07:26:54;;;;;;;5.13;3.60;;;11.60;99.90;;;;;;5035953;28;20655;-64
2022/10/26 07:29:23;;;;;;;8.18;4.50;;;11.60;99.90;;;;;;5034423;28;20199;-64
2022/10/26 07:31:50;;;;;;;4.57;3.83;;;11.70;99.90;;;;;;5035829;28;20179;-64
2022/10/26 07:34:16;;;;;;;4.43;3.70;;;11.70;99.90;;;;;;5035735;28;20601;-64
2022/10/26 07:36:41;;;;;;;4.55;4.15;;;11.80;99.90;;;;;;5036276;28;20175;-64
2022/10/26 07:39:07;;;;;;;7.78;4.38;;;11.80;99.90;;;;;;5035588;28;20179;-64
2022/10/26 07:41:34;;;;;;;6.65;4.00;;;11.90;99.90;;;;;;5035904;28;20643;-64
2022/10/26 07:44:00;;;;;;;8.10;4.35;;;11.90;99.90;;;;;;5035674;28;20187;-64
2022/10/26 07:46:26;;;;;;;4.75;4.22;;;12.00;99.90;;;;;;5036061;28;20619;-64
2022/10/26 07:48:52;;;;;;;9.35;4.13;;;12.10;99.90;;;;;;5035494;28;20199;-64
2022/10/26 07:51:18;;;;;;;10.45;4.47;;;12.20;99.90;;;;;;5035740;28;20183;-64
2022/10/26 07:53:45;;;;;;;4.07;3.45;;;12.20;99.90;;;;;;5035510;28;20612;-64
2022/10/26 07:56:11;;;;;;;4.35;3.92;;;12.30;99.90;;;;;;5035699;28;20183;-64
2022/10/26 07:58:37;;;;;;;5.13;3.90;;;12.40;99.90;;;;;;5035337;28;20215;-64
2022/10/26 08:01:13;;;;;;;5.63;3.95;;;12.50;99.90;;;;;;5035280;28;20207;-64
2022/10/26 08:03:40;;;;;;;7.70;3.70;;;12.50;99.90;;;;;;5033919;28;20628;-64
2022/10/26 08:06:08;;;;;;;5.85;3.60;;;12.60;99.90;;;;;;5035144;28;20678;-64
2022/10/26 08:08:34;;;;;;;5.63;4.00;;;12.60;99.90;;;;;;5035502;28;20172;-64
2022/10/26 08:10:59;;;;;;;6.68;4.28;;;12.70;99.90;;;;;;5035061;28;20599;-64
2022/10/26 08:13:26;;;;;;;5.18;3.70;;;12.80;99.90;;;;;;5035140;28;20168;-64
2022/10/26 08:16:03;;;;;;;6.18;3.65;;;12.80;99.90;;;;;;5034540;28;20199;-64
2022/10/26 08:18:29;;;;;;;5.40;4.18;;;12.90;99.90;;;;;;5034097;28;20214;-64
2022/10/26 08:20:59;;;;;;;4.38;3.63;;;13.00;99.90;;;;;;5035024;28;20210;-64
2022/10/26 08:23:25;;;;;;;6.95;4.57;;;13.00;99.90;;;;;;5034906;28;20159;-64
2022/10/26 08:25:51;;;;;;;5.03;4.03;;;13.10;99.90;;;;;;5034679;28;20260;-64
2022/10/26 08:28:17;;;;;;;6.28;3.90;;;13.20;99.90;;;;;;5034950;28;20234;-64
2022/10/26 08:30:42;;;;;;;7.00;3.90;;;13.40;99.90;;;;;;5034735;28;20167;-64
2022/10/26 08:33:09;;;;;;;4.18;3.78;;;13.50;99.90;;;;;;5033428;28;20202;-64
2022/10/26 08:35:35;;;;;;;5.68;3.35;;;13.50;99.90;;;;;;5034580;28;20199;-64
2022/10/26 08:38:01;;;;;;;3.90;3.30;;;13.60;99.90;;;;;;5034590;28;20248;-64
2022/10/26 08:40:32;;;;;;;5.03;3.45;;;13.60;99.90;;;;;;5034615;28;20593;-64
2022/10/26 08:43:10;;;;;;;3.63;3.28;;;13.60;99.90;;;;;;5034502;28;20176;-64
2022/10/26 08:45:40;;;;;;;4.45;3.47;;;13.60;99.90;;;;;;5034417;28;20203;-64
2022/10/26 08:48:15;;;;;;;3.88;3.58;;;13.60;99.90;;;;;;5033412;28;20183;-64
2022/10/26 08:50:55;;;;;;;7.78;4.07;;;13.60;99.90;;;;;;5033100;28;20178;-64
2022/10/26 08:53:27;;;;;;;4.85;3.13;;;13.60;99.90;;;;;;5034581;28;20647;-64
2022/10/26 08:56:02;;;;;;;4.70;3.60;;;13.70;99.90;;;;;;5034088;28;20195;-64
2022/10/26 08:58:37;;;;;;;4.50;3.20;;;13.70;99.90;;;;;;5034565;28;20174;-65
2022/10/26 09:01:04;;;;;;;3.30;3.00;;;13.80;99.90;;;;;;5034748;28;20155;-64
2022/10/26 09:03:30;;;;;;;5.55;3.20;;;13.90;99.90;;;;;;5032891;28;20183;-64
2022/10/26 09:06:24;;;;;;;3.30;2.80;;;14.00;99.90;;;;;;5033947;28;20213;-64
2022/10/26 09:09:13;;;;;;;3.75;3.05;;;14.00;99.90;;;;;;5034270;28;20162;-65
2022/10/26 09:11:58;;;;;;;4.22;2.85;;;14.30;99.90;;;;;;5034036;28;20168;-64
2022/10/26 09:14:32;;;;;;;4.18;3.35;;;14.50;99.90;;;;;;5034005;28;20191;-64
2022/10/26 09:17:07;;;;;;;3.60;3.10;;;14.80;99.90;;;;;;5033880;28;20155;-64
2022/10/26 09:19:57;;;;;;;5.35;3.03;;;15.00;99.90;;;;;;5033835;28;20513;-64
2022/10/26 09:22:41;;;;;;;4.80;3.53;;;15.20;99.90;;;;;;5032628;28;20183;-64
2022/10/26 09:25:20;;;;;;;4.63;3.00;;;15.40;99.90;;;;;;5033756;28;20195;-64
2022/10/26 09:27:59;;;;;;;3.97;2.97;;;15.60;99.90;;;;;;5032590;28;20187;-64
2022/10/26 09:30:25;;;;;;;4.93;2.95;;;15.70;99.90;;;;;;5032373;28;20304;-64
2022/10/26 09:33:15;;;;;;;10.65;3.10;;;15.80;99.90;;;;;;5033938;28;20258;-64
2022/10/26 09:36:02;;;;;;;5.95;3.17;;;15.80;99.90;;;;;;5032247;28;20287;-65
2022/10/26 09:38:32;;;;;;;7.65;3.13;;;15.90;99.90;;;;;;5033542;28;20254;-65
2022/10/26 09:41:05;;;;;;;11.35;3.38;;;16.10;99.90;;;;;;5032131;28;20179;-65
2022/10/26 09:43:36;;;;;;;6.05;3.10;;;16.40;99.90;;;;;;5032259;28;20598;-65
2022/10/26 09:46:02;;;;;;;6.97;3.25;;;16.50;99.90;;;;;;5033364;28;20226;-65
2022/10/26 09:48:52;;;;;;;5.95;3.08;;;16.70;99.90;;;;;;5033895;28;20686;-64
2022/10/26 09:51:18;;;;;;;5.78;3.00;;;16.80;99.90;;;;;;5033239;28;20627;-64
2022/10/26 09:53:46;;;;;;;5.13;3.13;;;17.00;99.90;;;;;;5033265;28;20171;-64
2022/10/26 09:56:13;;;;;;;5.88;2.72;;;17.00;99.90;;;;;;5031878;28;20179;-64
2022/10/26 09:58:58;;;;;;;6.10;2.65;;;16.90;99.90;;;;;;5033264;28;20182;-64
2022/10/26 10:01:31;;;;;;;7.03;3.00;;;16.80;99.90;;;;;;5033548;28;20187;-64
2022/10/26 10:04:12;;;;;;;4.75;2.70;;;16.80;99.90;;;;;;5031885;28;20249;-64
2022/10/26 10:06:39;;;;;;;7.78;2.92;;;16.70;99.90;;;;;;5031898;28;20190;-64
2022/10/26 10:09:20;;;;;;;8.20;2.72;;;16.80;99.90;;;;;;5033021;28;20189;-64
2022/10/26 10:12:19;;;;;;;5.03;3.00;;;16.90;99.90;;;;;;5033417;28;20183;-64
2022/10/26 10:14:57;;;;;;;7.57;3.28;;;17.00;99.90;;;;;;5032240;28;20249;-64
2022/10/26 10:17:24;;;;;;;7.90;2.90;;;16.90;99.90;;;;;;5033303;28;20208;-64
2022/10/26 10:19:51;;;;;;;6.28;3.13;;;16.90;99.90;;;;;;5033097;28;20603;-64
2022/10/26 10:22:25;;;;;;;6.50;3.40;;;16.80;99.90;;;;;;5031747;28;20186;-64
2022/10/26 10:25:02;;;;;;;8.55;3.13;;;16.80;99.90;;;;;;5032967;28;20238;-64
2022/10/26 10:27:30;;;;;;;10.95;2.80;;;16.80;99.90;;;;;;5032964;28;20171;-64
2022/10/26 10:29:57;;;;;;;5.55;3.33;;;17.00;99.90;;;;;;5033021;28;20708;-64
2022/10/26 10:32:26;;;;;;;5.30;3.15;;;17.10;99.90;;;;;;5031597;28;20210;-64
2022/10/26 10:34:56;;;;;;;7.55;3.08;;;17.20;99.90;;;;;;5032856;28;20199;-64
2022/10/26 10:37:41;;;;;;;6.18;3.03;;;17.30;99.90;;;;;;5033440;28;20168;-64
2022/10/26 10:40:17;;;;;;;6.35;3.08;;;17.40;99.90;;;;;;5036288;28;20155;-64
2022/10/26 10:42:44;;;;;;;9.10;3.10;;;17.60;99.90;;;;;;5036886;28;20183;-64
2022/10/26 10:45:21;;;;;;;5.20;2.70;;;17.80;99.90;;;;;;5037234;28;20231;-64
2022/10/26 10:48:01;;;;;;;7.50;3.28;;;17.90;99.90;;;;;;5036772;28;20175;-64
2022/10/26 10:50:28;;;;;;;6.68;2.63;;;18.10;99.90;;;;;;5036868;28;20195;-64
2022/10/26 10:53:23;;;;;;;5.97;2.72;;;18.30;99.90;;;;;;5036843;28;20178;-65
2022/10/26 10:56:00;;;;;;;8.30;3.10;;;18.50;99.90;;;;;;5036395;28;20211;-66
2022/10/26 10:58:46;;;;;;;8.70;2.72;;;18.80;99.90;;;;;;5035287;28;20175;-66
2022/10/26 11:01:21;;;;;;;8.15;2.88;;;18.90;99.90;;;;;;5035195;28;20202;-69
2022/10/26 11:04:14;;;;;;;5.22;2.53;;;19.00;99.90;;;;;;5036628;28;20163;-68
2022/10/26 11:06:41;;;;;;;4.78;2.83;;;19.10;99.90;;;;;;5036429;28;20186;-68
2022/10/26 11:09:13;;;;;;;5.68;2.85;;;19.30;99.90;;;;;;5036332;28;20171;-68
2022/10/26 11:11:45;;;;;;;8.40;3.05;;;19.30;99.90;;;;;;5036617;28;20160;-68
2022/10/26 11:14:16;;;;;;;5.07;2.85;;;19.50;99.90;;;;;;5034884;28;20212;-67
2022/10/26 11:16:48;;;;;;;9.88;3.40;;;19.60;99.90;;;;;;5036042;28;20160;-68
2022/10/26 11:19:23;;;;;;;8.65;3.08;;;19.70;99.90;;;;;;5036136;28;20609;-68
2022/10/26 11:21:54;;;;;;;8.90;2.97;;;19.80;99.90;;;;;;5036028;28;20167;-67
2022/10/26 11:24:48;;;;;;;7.57;2.92;;;19.80;99.90;;;;;;5034502;28;20203;-67
2022/10/26 11:27:37;;;;;;;8.43;3.10;;;19.80;99.90;;;;;;5035431;28;20187;-68
2022/10/26 11:30:14;;;;;;;4.20;2.53;;;19.80;99.90;;;;;;5035338;28;20195;-68
2022/10/26 11:32:42;;;;;;;5.97;2.75;;;19.90;99.90;;;;;;5034674;28;20174;-68
2022/10/26 11:35:25;;;;;;;5.32;2.80;;;20.00;99.90;;;;;;5036700;28;20195;-65
2022/10/26 11:38:07;;;;;;;8.15;2.78;;;20.00;99.90;;;;;;5034457;28;20171;-65
2022/10/26 11:40:55;;;;;;;6.63;2.97;;;20.00;99.90;;;;;;5035845;28;20167;-65
2022/10/26 11:43:44;;;;;;;7.20;3.13;;;20.00;99.90;;;;;;5036074;28;20171;-65
2022/10/26 11:46:13;;;;;;;11.02;3.28;;;20.10;99.90;;;;;;5035568;28;20249;-65
2022/10/26 11:48:54;;;;;;;5.55;2.65;;;20.10;99.90;;;;;;5035499;28;20233;-65
2022/10/26 11:51:45;;;;;;;6.53;3.20;;;20.20;99.90;;;;;;5033322;28;20546;-65
2022/10/26 11:54:18;;;;;;;5.13;3.00;;;20.20;99.90;;;;;;5033996;28;20203;-65
2022/10/26 11:56:50;;;;;;;4.40;2.50;;;20.00;99.90;;;;;;5035458;28;20213;-65
2022/10/26 11:59:20;;;;;;;10.95;3.60;;;20.00;99.90;;;;;;5035363;28;20167;-65
2022/10/26 12:02:01;;;;;;;6.38;2.97;;;20.10;99.90;;;;;;5035312;28;20254;-65
2022/10/26 12:04:30;;;;;;;4.97;3.08;;;20.10;99.90;;;;;;5035374;28;20330;-65
2022/10/26 12:07:00;;;;;;;10.85;3.33;;;20.30;99.90;;;;;;5033971;28;20246;-66
2022/10/26 12:09:30;;;;;;;5.45;2.97;;;20.30;99.90;;;;;;5035412;28;20191;-65
2022/10/26 12:12:37;;;;;;;9.48;2.70;;;20.20;99.90;;;;;;5035362;28;20156;-65
2022/10/26 12:15:13;;;;;;;5.40;2.90;;;20.40;99.90;;;;;;5035892;28;20656;-65
2022/10/26 12:18:10;;;;;;;4.75;2.75;;;20.30;99.90;;;;;;5035872;28;20554;-65
2022/10/26 12:20:45;;;;;;;4.85;2.97;;;20.30;99.90;;;;;;5034765;28;20202;-64
2022/10/26 12:23:11;;;;;;;4.78;2.83;;;20.40;99.90;;;;;;5035078;28;20175;-65
2022/10/26 12:25:38;;;;;;;4.70;2.30;;;20.50;99.90;;;;;;5036458;28;20691;-65
2022/10/26 12:28:04;;;;;;;5.57;2.65;;;20.50;99.90;;;;;;5038735;28;20198;-65
2022/10/26 12:30:32;;;;;;;3.38;2.25;;;20.60;99.90;;;;;;5035199;28;20233;-65
2022/10/26 12:33:04;;;;;;;3.75;2.50;;;20.50;99.90;;;;;;5034962;28;20652;-65
2022/10/26 12:35:41;;;;;;;4.30;2.65;;;20.30;99.90;;;;;;5034883;28;20212;-64
2022/10/26 12:38:46;;;;;;;5.93;2.53;;;20.20;99.90;;;;;;5033731;28;20667;-65
2022/10/26 12:41:23;;;;;;;4.72;2.60;;;20.30;99.90;;;;;;5033051;28;20187;-65
2022/10/26 12:43:48;;;;;;;5.57;2.70;;;20.30;99.90;;;;;;5034596;28;20667;-65
2022/10/26 12:46:14;;;;;;;8.95;2.85;;;20.30;99.90;;;;;;5034603;28;20203;-65
2022/10/26 12:48:45;;;;;;;6.72;3.03;;;20.30;99.90;;;;;;5020273;28;20183;-65
2022/10/26 12:51:37;;;;;;;11.30;2.63;;;20.20;99.90;;;;;;5014756;28;20170;-65
2022/10/26 12:54:03;;;;;;;7.47;2.50;;;20.30;99.90;;;;;;5014518;28;20196;-65
2022/10/26 12:56:43;;;;;;;5.82;2.50;;;20.30;99.90;;;;;;5014403;28;20175;-64
2022/10/26 12:59:20;;;;;;;5.95;2.20;;;20.30;99.90;;;;;;5014427;28;20216;-64
2022/10/26 13:02:34;;;;;;;11.07;3.97;;;20.20;99.90;;;;;;5014155;28;20164;-64
2022/10/26 13:05:06;;;;;;;6.85;2.80;;;20.10;99.90;;;;;;4990297;28;20730;-64
2022/10/26 13:07:40;;;;;;;3.88;2.92;;;19.90;99.90;;;;;;5013335;28;20350;-64
2022/10/26 13:10:16;;;;;;;5.00;3.35;;;19.90;99.90;;;;;;5014163;28;20644;-64
2022/10/26 13:12:57;;;;;;;8.90;2.95;;;19.80;99.90;;;;;;5014228;28;20239;-64
2022/10/26 13:15:53;;;;;;;5.75;2.50;;;19.90;99.90;;;;;;5014223;28;20245;-64